Time;durP1;ratioP1;P1;durP2;ratioP2;P2;SDS_P1;SDS_P2;PMS_P1;PMS_P2;Temp;Humidity;BMP_temperature;BMP_pressure;BME280_temperature;BME280_humidity;BME280_pressure;Samples;Min_cycle;Max_cycle;Signal;HPM_P1;HPM_P2
2023/04/20 00:02:03;;;;;;;27.27;5.50;;;;;;;17.31;100.00;101005.97;5043835;28;20447;-89
2023/04/20 00:04:31;;;;;;;23.10;5.27;;;;;;;17.25;100.00;100997.53;5044061;28;20467;-88
2023/04/20 00:07:00;;;;;;;18.90;4.70;;;;;;;17.24;100.00;100995.84;4964184;28;20442;-88
2023/04/20 00:09:27;;;;;;;25.37;5.40;;;;;;;17.19;100.00;100998.44;4980253;28;20847;-88
2023/04/20 00:11:55;;;;;;;26.20;5.70;;;;;;;17.18;100.00;100995.91;4980079;28;20451;-88
2023/04/20 00:14:23;;;;;;;29.47;5.47;;;;;;;17.11;100.00;100984.97;4964463;28;20451;-88
2023/04/20 00:16:54;;;;;;;25.10;4.37;;;;;;;17.09;100.00;100986.28;4964047;28;20451;-88
2023/04/20 00:19:22;;;;;;;24.37;5.97;;;;;;;17.02;100.00;100980.81;5011986;28;20965;-88
2023/04/20 00:21:50;;;;;;;18.47;4.50;;;;;;;17.00;100.00;100974.69;4980026;28;20450;-88
2023/04/20 00:24:18;;;;;;;27.93;5.20;;;;;;;16.89;100.00;100953.38;4988585;28;20516;-89
2023/04/20 00:26:47;;;;;;;23.73;5.47;;;;;;;16.87;100.00;100961.88;5038819;28;20551;-88
2023/04/20 00:29:14;;;;;;;21.17;4.73;;;;;;;16.86;100.00;100959.34;5040019;28;20986;-88
2023/04/20 00:31:44;;;;;;;15.63;4.43;;;;;;;16.81;100.00;100950.91;5020064;28;20459;-88
2023/04/20 00:34:11;;;;;;;23.20;5.87;;;;;;;16.73;100.00;100942.94;5003735;28;20841;-88
2023/04/20 00:36:39;;;;;;;18.07;5.10;;;;;;;16.70;100.00;100944.25;5003497;28;20434;-87
2023/04/20 00:39:06;;;;;;;13.97;4.20;;;;;;;16.65;100.00;100929.44;5003863;28;20453;-87
2023/04/20 00:41:37;;;;;;;21.87;4.87;;;;;;;16.50;100.00;100925.09;5018316;28;20446;-88
2023/04/20 00:44:10;;;;;;;22.47;4.47;;;;;;;16.43;100.00;100918.81;5068069;28;20452;-88
2023/04/20 00:46:40;;;;;;;22.47;5.50;;;;;;;16.39;100.00;100919.47;5055631;28;20449;-88
2023/04/20 00:49:08;;;;;;;15.53;4.10;;;;;;;16.28;100.00;100915.56;5039180;28;20481;-87
2023/04/20 00:51:36;;;;;;;13.40;4.03;;;;;;;16.21;100.00;100906.50;5039330;28;20445;-88
2023/04/20 00:54:05;;;;;;;15.43;4.00;;;;;;;16.13;100.00;100898.53;5023081;28;20442;-88
2023/04/20 00:56:33;;;;;;;17.23;4.20;;;;;;;16.07;100.00;100899.44;5021756;28;20433;-88
2023/04/20 00:59:01;;;;;;;11.97;3.30;;;;;;;15.99;100.00;100896.94;5039027;28;20464;-88
2023/04/20 01:01:30;;;;;;;16.47;5.13;;;;;;;15.91;100.00;100891.75;5022561;28;20449;-88
2023/04/20 01:04:00;;;;;;;19.43;4.40;;;;;;;15.88;100.00;100899.38;5039668;28;20442;-88
2023/04/20 01:06:29;;;;;;;23.70;4.40;;;;;;;15.84;100.00;100911.91;5055151;28;20799;-89
2023/04/20 01:09:16;;;;;;;14.10;4.60;;;;;;;15.86;100.00;100903.44;5027168;28;20493;-88
2023/04/20 01:11:45;;;;;;;23.43;4.90;;;;;;;15.85;100.00;100910.00;5055968;28;20433;-88
2023/04/20 01:14:12;;;;;;;22.03;5.13;;;;;;;15.83;100.00;100898.38;5022522;28;20895;-88
2023/04/20 01:16:46;;;;;;;22.67;4.37;;;;;;;15.88;100.00;100904.91;5023444;28;20429;-88
2023/04/20 01:19:13;;;;;;;24.83;5.40;;;;;;;15.89;100.00;100911.25;5055754;28;20434;-88
2023/04/20 01:21:41;;;;;;;23.53;4.83;;;;;;;15.83;100.00;100882.66;5021847;28;20811;-88
2023/04/20 01:24:10;;;;;;;15.90;5.17;;;;;;;15.86;100.00;100893.25;5035931;28;20469;-89
2023/04/20 01:26:38;;;;;;;20.50;4.40;;;;;;;15.87;100.00;100897.69;5057675;28;21009;-89
2023/04/20 01:29:07;;;;;;;21.33;4.80;;;;;;;15.80;100.00;100894.13;5042412;28;20480;-88
2023/04/20 01:31:34;;;;;;;22.77;4.20;;;;;;;15.86;100.00;100897.91;5059088;28;20441;-87
2023/04/20 01:34:02;;;;;;;19.03;4.73;;;;;;;15.85;100.00;100893.47;5058575;28;20437;-87
2023/04/20 01:36:30;;;;;;;23.93;5.47;;;;;;;15.86;100.00;100882.22;5058965;28;20860;-87
2023/04/20 01:38:57;;;;;;;27.23;5.10;;;;;;;15.85;100.00;100877.78;5058374;28;20463;-88
2023/04/20 01:41:25;;;;;;;13.90;4.90;;;;;;;15.91;100.00;100881.56;5042032;28;20441;-87
2023/04/20 01:43:53;;;;;;;22.40;5.03;;;;;;;15.87;100.00;100866.53;5042309;28;20448;-87
2023/04/20 01:46:21;;;;;;;17.47;4.17;;;;;;;15.87;100.00;100874.81;5091913;28;20437;-88
2023/04/20 01:48:49;;;;;;;23.83;4.90;;;;;;;15.86;100.00;100878.63;5058994;28;20484;-87
2023/04/20 01:51:20;;;;;;;15.30;4.40;;;;;;;15.85;100.00;100880.53;5042683;28;20520;-87
2023/04/20 01:53:48;;;;;;;15.33;4.90;;;;;;;15.81;100.00;100883.97;5058573;28;20934;-87
2023/04/20 01:56:16;;;;;;;19.10;5.47;;;;;;;15.73;100.00;100876.00;5057295;28;20437;-87
2023/04/20 01:58:43;;;;;;;15.17;4.10;;;;;;;15.73;100.00;100890.63;5058515;28;20494;-87
2023/04/20 02:01:11;;;;;;;21.07;5.30;;;;;;;15.65;100.00;100885.38;5041786;28;20440;-88
2023/04/20 02:03:39;;;;;;;18.77;4.43;;;;;;;15.66;100.00;100884.28;5058764;28;20441;-87
2023/04/20 02:06:07;;;;;;;21.47;4.07;;;;;;;15.55;100.00;100873.97;5042352;28;20528;-88
2023/04/20 02:08:35;;;;;;;14.10;4.30;;;;;;;15.47;100.00;100872.31;5042497;28;20477;-87
2023/04/20 02:11:04;;;;;;;17.60;3.80;;;;;;;15.56;100.00;100885.88;5045924;28;20441;-87
2023/04/20 02:13:32;;;;;;;19.40;4.30;;;;;;;15.51;100.00;100886.50;5077123;28;20437;-87
2023/04/20 02:16:03;;;;;;;12.30;3.90;;;;;;;15.53;100.00;100892.63;5066563;28;20998;-88
2023/04/20 02:18:31;;;;;;;16.03;3.97;;;;;;;15.49;100.00;100894.16;5116652;28;20444;-88
2023/04/20 02:21:01;;;;;;;23.93;4.67;;;;;;;15.37;100.00;100884.91;5050849;28;20452;-88
2023/04/20 02:23:28;;;;;;;18.53;4.00;;;;;;;15.28;100.00;100892.59;5078423;28;20472;-88
2023/04/20 02:25:55;;;;;;;14.37;3.93;;;;;;;15.17;100.00;100888.63;5061860;28;20452;-89
2023/04/20 02:28:23;;;;;;;19.63;4.80;;;;;;;15.18;100.00;100890.31;5061729;28;20448;-88
2023/04/20 02:30:53;;;;;;;16.60;4.57;;;;;;;15.15;100.00;100899.03;5077287;28;20805;-88
2023/04/20 02:33:21;;;;;;;20.00;4.03;;;;;;;15.11;100.00;100896.91;5078411;28;20428;-87
2023/04/20 02:35:49;;;;;;;25.60;4.80;;;;;;;15.08;100.00;100894.59;5061908;28;20570;-88
2023/04/20 02:38:18;;;;;;;14.27;4.00;;;;;;;15.01;100.00;100886.38;5061865;28;20887;-88
2023/04/20 02:40:45;;;;;;;18.77;4.43;;;;;;;15.02;100.00;100896.31;5061677;28;20444;-88
2023/04/20 02:43:15;;;;;;;27.80;6.43;;;;;;;15.00;100.00;100881.13;5061296;28;20464;-88
2023/04/20 02:45:45;;;;;;;22.87;4.53;;;;;;;15.00;100.00;100881.13;5078073;28;20437;-88
2023/04/20 02:48:15;;;;;;;28.93;6.37;;;;;;;15.06;100.00;100880.22;5078194;28;20440;-88
2023/04/20 02:50:43;;;;;;;26.93;6.23;;;;;;;15.07;100.00;100871.72;5078002;28;20472;-88
2023/04/20 02:53:11;;;;;;;30.27;5.87;;;;;;;15.21;100.00;100873.34;5044823;28;20444;-87
2023/04/20 02:55:39;;;;;;;28.10;6.03;;;;;;;15.31;100.00;100866.50;5044851;28;20826;-88
2023/04/20 02:58:07;;;;;;;29.77;6.10;;;;;;;15.32;100.00;100862.69;5060933;28;20437;-87
2023/04/20 03:00:37;;;;;;;33.47;5.60;;;;;;;15.42;100.00;100863.03;5061597;28;20429;-88
2023/04/20 03:03:04;;;;;;;33.80;6.40;;;;;;;15.48;100.00;100873.16;5045218;28;20547;-88
2023/04/20 03:05:32;;;;;;;31.10;7.07;;;;;;;15.49;100.00;100855.59;5061363;28;20437;-88
2023/04/20 03:08:04;;;;;;;26.70;6.77;;;;;;;15.53;100.00;100854.91;5043694;28;20445;-88
2023/04/20 03:10:33;;;;;;;24.13;5.77;;;;;;;15.53;100.00;100860.44;5077296;28;20481;-88
2023/04/20 03:13:01;;;;;;;34.30;7.37;;;;;;;15.49;100.00;100844.56;5062633;28;20536;-88
2023/04/20 03:15:31;;;;;;;24.90;5.10;;;;;;;15.51;100.00;100858.97;5044542;28;20452;-88
2023/04/20 03:18:00;;;;;;;24.90;7.17;;;;;;;15.39;100.00;100833.22;5076687;28;20486;-88
2023/04/20 03:20:27;;;;;;;42.40;7.40;;;;;;;15.44;100.00;100834.22;5060263;28;20455;-88
2023/04/20 03:22:55;;;;;;;37.50;7.17;;;;;;;15.50;100.00;100838.00;5044258;28;20549;-88
2023/04/20 03:25:23;;;;;;;37.70;7.17;;;;;;;15.53;100.00;100849.41;5061815;28;20829;-88
2023/04/20 03:27:52;;;;;;;22.63;5.70;;;;;;;15.52;100.00;100841.38;5044240;28;20440;-88
2023/04/20 03:30:20;;;;;;;22.60;6.60;;;;;;;15.51;100.00;100845.19;5060617;28;20858;-87
2023/04/20 03:32:47;;;;;;;28.80;5.90;;;;;;;15.49;100.00;100834.38;5043691;28;20441;-88
2023/04/20 03:35:19;;;;;;;29.47;6.13;;;;;;;15.53;100.00;100840.28;5093771;28;20505;-88
2023/04/20 03:37:48;;;;;;;34.43;7.13;;;;;;;15.53;100.00;100843.06;5076290;28;20441;-88
2023/04/20 03:40:16;;;;;;;29.50;6.27;;;;;;;15.49;100.00;100839.91;5077004;28;20794;-88
2023/04/20 03:42:44;;;;;;;29.07;8.77;;;;;;;15.46;100.00;100831.22;5043945;28;20448;-88
2023/04/20 03:45:12;;;;;;;30.53;5.10;;;;;;;15.50;100.00;100838.81;5043075;28;20437;-88
2023/04/20 03:47:42;;;;;;;25.17;6.30;;;;;;;15.44;100.00;100834.22;5059743;28;20474;-88
2023/04/20 03:50:10;;;;;;;22.77;6.00;;;;;;;15.47;100.00;100832.91;5094624;28;20488;-87
2023/04/20 03:52:37;;;;;;;20.03;4.93;;;;;;;15.54;100.00;100840.06;5044030;28;20828;-88
2023/04/20 03:55:09;;;;;;;20.30;5.90;;;;;;;15.58;100.00;100840.50;5043514;28;20444;-88
2023/04/20 03:57:37;;;;;;;39.60;5.90;;;;;;;15.57;100.00;100830.56;5076199;28;20439;-87
2023/04/20 04:00:06;;;;;;;26.10;5.70;;;;;;;15.57;100.00;100830.56;5043862;28;20429;-88
2023/04/20 04:02:34;;;;;;;21.37;5.07;;;;;;;15.57;100.00;100833.31;5054224;28;20440;-88
2023/04/20 04:05:06;;;;;;;23.20;5.60;;;;;;;15.57;100.00;100824.19;5044388;28;20436;-88
2023/04/20 04:07:34;;;;;;;22.07;5.37;;;;;;;15.61;100.00;100831.75;5076635;28;20540;-88
2023/04/20 04:10:04;;;;;;;16.63;5.83;;;;;;;15.62;100.00;100827.94;5060164;28;20508;-88
2023/04/20 04:12:33;;;;;;;26.90;5.57;;;;;;;15.58;100.00;100821.22;5043264;28;20536;-88
2023/04/20 04:15:01;;;;;;;30.00;5.80;;;;;;;15.65;100.00;100835.75;5074529;28;20812;-87
2023/04/20 04:17:31;;;;;;;20.77;5.10;;;;;;;15.62;100.00;100836.22;5059956;28;20448;-88
2023/04/20 04:20:08;;;;;;;20.40;5.87;;;;;;;15.64;100.00;100828.56;5076256;28;20788;-88
2023/04/20 04:22:36;;;;;;;18.30;4.90;;;;;;;15.58;100.00;100834.16;5093926;28;20491;-88
2023/04/20 04:25:04;;;;;;;24.57;6.30;;;;;;;15.61;100.00;100840.03;5043162;28;20449;-88
2023/04/20 04:27:34;;;;;;;18.67;5.10;;;;;;;15.55;100.00;100835.41;5043162;28;20445;-88
2023/04/20 04:30:09;;;;;;;24.00;5.80;;;;;;;15.55;100.00;100846.44;5060276;28;20473;-90
2023/04/20 04:32:37;;;;;;;21.33;5.10;;;;;;;15.52;100.00;100836.69;5061880;28;20476;-89
2023/04/20 04:35:09;;;;;;;22.37;5.50;;;;;;;15.55;100.00;100843.69;5056365;28;20434;-89
2023/04/20 04:37:36;;;;;;;19.13;4.90;;;;;;;15.56;100.00;100848.16;5055548;28;20440;-88
2023/04/20 04:40:06;;;;;;;22.07;4.87;;;;;;;15.55;100.00;100832.66;5023243;28;20467;-88
2023/04/20 04:42:35;;;;;;;22.53;5.60;;;;;;;15.57;100.00;100844.34;5037778;28;20946;-88
2023/04/20 04:45:05;;;;;;;13.17;4.33;;;;;;;15.54;100.00;100839.22;5042732;28;20472;-89
2023/04/20 04:47:35;;;;;;;25.93;5.17;;;;;;;15.55;100.00;100840.91;5076162;28;20437;-88
2023/04/20 04:50:04;;;;;;;27.70;6.03;;;;;;;15.57;100.00;100838.81;5043462;28;20499;-88
2023/04/20 04:52:34;;;;;;;23.77;5.33;;;;;;;15.52;100.00;100828.44;5043177;28;20435;-89
2023/04/20 04:55:06;;;;;;;28.50;5.50;;;;;;;15.50;100.00;100835.22;5043114;28;20436;-89
2023/04/20 04:57:37;;;;;;;23.83;5.50;;;;;;;15.54;100.00;100842.84;5042334;28;20449;-88
2023/04/20 05:00:10;;;;;;;25.33;5.33;;;;;;;15.56;100.00;100841.78;5068530;28;20502;-87
2023/04/20 05:02:38;;;;;;;20.80;5.20;;;;;;;15.53;100.00;100841.16;5058759;28;20436;-88
2023/04/20 05:05:10;;;;;;;22.70;5.60;;;;;;;15.47;100.00;100825.50;5042759;28;20437;-88
2023/04/20 05:07:38;;;;;;;21.77;4.70;;;;;;;15.57;100.00;100837.97;5089378;28;20441;-87
2023/04/20 05:10:07;;;;;;;25.90;5.43;;;;;;;15.54;100.00;100845.59;5041192;28;21020;-88
2023/04/20 05:12:34;;;;;;;20.37;4.57;;;;;;;15.44;100.00;100822.34;5058615;28;20868;-87
2023/04/20 05:15:03;;;;;;;16.80;4.63;;;;;;;15.53;100.00;100848.56;5058737;28;20444;-88
2023/04/20 05:17:31;;;;;;;17.77;5.20;;;;;;;15.49;100.00;100836.28;5041821;28;20441;-88
2023/04/20 05:19:59;;;;;;;23.43;5.83;;;;;;;15.56;100.00;100852.81;5042551;28;20930;-88
2023/04/20 05:22:27;;;;;;;18.70;4.57;;;;;;;15.53;100.00;100854.06;5059111;28;20965;-87
2023/04/20 05:24:55;;;;;;;19.80;5.13;;;;;;;15.55;100.00;100849.19;5043021;28;20441;-88
2023/04/20 05:27:22;;;;;;;19.80;4.63;;;;;;;15.50;100.00;100844.34;5056970;28;20459;-88
2023/04/20 05:29:51;;;;;;;18.80;5.17;;;;;;;15.49;100.00;100836.28;5042011;28;20555;-89
2023/04/20 05:32:20;;;;;;;15.40;4.60;;;;;;;15.51;100.00;100850.69;5058441;28;20440;-88
2023/04/20 05:34:48;;;;;;;22.30;4.80;;;;;;;15.51;100.00;100856.19;5091836;28;20444;-88
2023/04/20 05:37:16;;;;;;;18.47;4.73;;;;;;;15.47;100.00;100855.78;5057514;28;20440;-88
2023/04/20 05:39:45;;;;;;;23.67;4.87;;;;;;;15.50;100.00;100849.00;5075270;28;20448;-88
2023/04/20 05:42:15;;;;;;;19.63;4.90;;;;;;;15.49;100.00;100852.81;5058541;28;20550;-87
2023/04/20 05:44:43;;;;;;;18.90;4.87;;;;;;;15.49;100.00;100861.09;5078810;28;20445;-88
2023/04/20 05:47:11;;;;;;;11.13;4.40;;;;;;;15.47;100.00;100852.19;5046390;28;20436;-89
2023/04/20 05:49:39;;;;;;;24.70;5.70;;;;;;;15.53;100.00;100862.34;5062404;28;20552;-88
2023/04/20 05:52:07;;;;;;;21.27;4.93;;;;;;;15.50;100.00;100862.78;5045649;28;20531;-88
2023/04/20 05:54:36;;;;;;;22.30;5.13;;;;;;;15.43;100.00;100854.56;5045802;28;20445;-88
2023/04/20 05:57:04;;;;;;;18.80;4.17;;;;;;;15.46;100.00;100859.63;5045103;28;20436;-88
2023/04/20 05:59:32;;;;;;;15.10;5.20;;;;;;;15.50;100.00;100862.78;5079346;28;20471;-88
2023/04/20 06:01:59;;;;;;;47.93;5.53;;;;;;;15.49;100.00;100859.19;5042199;28;20445;-88
2023/04/20 06:04:29;;;;;;;23.57;4.30;;;;;;;15.50;100.00;100860.88;5058674;28;20445;-88
2023/04/20 06:07:00;;;;;;;22.53;4.90;;;;;;;15.52;100.00;100864.25;5047002;28;20935;-88
2023/04/20 06:09:29;;;;;;;18.77;5.00;;;;;;;15.52;100.00;100860.66;5083614;28;20555;-89
2023/04/20 06:11:59;;;;;;;21.97;4.97;;;;;;;15.58;100.00;100861.69;5060987;28;20931;-88
2023/04/20 06:14:27;;;;;;;23.83;5.03;;;;;;;15.54;100.00;100864.03;5061451;28;20483;-88
2023/04/20 06:16:56;;;;;;;18.50;4.73;;;;;;;15.56;100.00;100867.44;5062342;28;20481;-88
2023/04/20 06:19:24;;;;;;;30.20;4.93;;;;;;;15.54;100.00;100866.78;5045699;28;20888;-88
2023/04/20 06:21:53;;;;;;;18.13;4.63;;;;;;;15.48;100.00;100854.72;5061403;28;20543;-88
2023/04/20 06:24:23;;;;;;;15.13;4.50;;;;;;;15.57;100.00;100865.53;5057914;28;20901;-88
2023/04/20 06:26:50;;;;;;;16.83;4.30;;;;;;;15.57;100.00;100869.13;5074908;28;20438;-87
2023/04/20 06:29:18;;;;;;;18.13;3.60;;;;;;;15.58;100.00;100875.47;5041967;28;20476;-88
2023/04/20 06:31:49;;;;;;;27.70;4.80;;;;;;;15.63;100.00;100881.97;5025442;28;20445;-89
2023/04/20 06:34:19;;;;;;;20.70;5.17;;;;;;;15.62;100.00;100880.28;5058097;28;20810;-89
2023/04/20 06:36:52;;;;;;;17.90;4.60;;;;;;;15.63;100.00;100876.47;5057610;28;20449;-88
2023/04/20 06:39:20;;;;;;;17.80;4.20;;;;;;;15.63;100.00;100876.47;5040543;28;20439;-88
2023/04/20 06:41:48;;;;;;;18.70;4.70;;;;;;;15.65;100.00;100877.09;5057331;28;20449;-88
2023/04/20 06:44:15;;;;;;;27.37;4.60;;;;;;;15.69;100.00;100875.59;5057621;28;20440;-88
2023/04/20 06:46:43;;;;;;;24.73;4.20;;;;;;;15.74;100.00;100888.69;5041702;28;20446;-88
2023/04/20 06:49:11;;;;;;;16.20;5.23;;;;;;;15.72;100.00;100879.81;5024675;28;20445;-89
2023/04/20 06:51:39;;;;;;;18.63;4.20;;;;;;;15.78;100.00;100884.41;5041025;28;20485;-88
2023/04/20 06:54:09;;;;;;;11.30;4.13;;;;;;;15.77;100.00;100882.75;5040193;28;20449;-88
2023/04/20 06:56:37;;;;;;;21.63;4.73;;;;;;;15.81;100.00;100884.81;5057627;28;21027;-88
2023/04/20 06:59:05;;;;;;;23.83;5.00;;;;;;;15.85;100.00;100883.28;5041665;28;20452;-88
2023/04/20 07:01:32;;;;;;;22.80;5.13;;;;;;;15.87;100.00;100883.06;5050042;28;20831;-88
2023/04/20 07:04:02;;;;;;;23.93;5.80;;;;;;;15.94;100.00;100883.03;5040585;28;20461;-88
2023/04/20 07:06:30;;;;;;;16.97;4.67;;;;;;;15.99;100.00;100884.00;5040980;28;20548;-88
2023/04/20 07:09:01;;;;;;;23.97;4.90;;;;;;;16.04;100.00;100889.69;5025939;28;20426;-88
2023/04/20 07:11:30;;;;;;;22.27;5.13;;;;;;;16.07;100.00;100891.16;5057145;28;20492;-88
2023/04/20 07:13:58;;;;;;;23.93;4.60;;;;;;;16.11;100.00;100896.00;5023954;28;20846;-88
2023/04/20 07:16:33;;;;;;;15.23;4.67;;;;;;;16.14;100.00;100898.31;5043516;28;20437;-88
2023/04/20 07:19:01;;;;;;;22.83;4.87;;;;;;;16.18;100.00;100904.19;5055666;28;20504;-89
2023/04/20 07:21:31;;;;;;;21.70;4.90;;;;;;;16.24;100.00;100906.06;5019130;28;20446;-88
2023/04/20 07:24:01;;;;;;;13.00;4.13;;;;;;;16.28;100.00;100901.78;5039110;28;20480;-89
2023/04/20 07:26:28;;;;;;;17.47;4.50;;;;;;;16.29;100.00;100903.47;5077344;28;20429;-88
2023/04/20 07:28:56;;;;;;;16.30;4.10;;;;;;;16.33;100.00;100904.69;5061012;28;20440;-88
2023/04/20 07:31:24;;;;;;;20.73;5.10;;;;;;;16.37;100.00;100905.91;5043936;28;20480;-88
2023/04/20 07:33:51;;;;;;;14.40;4.30;;;;;;;16.45;100.00;100902.88;5043628;28;20867;-89
2023/04/20 07:36:21;;;;;;;21.30;4.90;;;;;;;16.50;100.00;100910.47;5043989;28;20447;-88
2023/04/20 07:38:50;;;;;;;15.70;4.80;;;;;;;16.54;100.00;100907.03;5053562;28;21018;-92
2023/04/20 07:41:18;;;;;;;18.57;4.53;;;;;;;16.52;100.00;100892.63;5093363;28;20433;-91
2023/04/20 07:43:50;;;;;;;13.03;4.30;;;;;;;16.59;100.00;100893.34;5061316;28;20449;-91
2023/04/20 07:46:39;;;;;;;17.13;4.20;;;;;;;16.70;100.00;100904.75;5043895;28;20959;-91
2023/04/20 07:49:11;;;;;;;24.03;4.70;;;;;;;16.73;100.00;100902.38;5028554;28;20436;-91
2023/04/20 07:51:39;;;;;;;16.90;4.00;;;;;;;16.76;100.00;100899.13;5079561;28;20480;-90
2023/04/20 07:54:09;;;;;;;12.00;4.27;;;;;;;16.77;100.00;100888.94;5044575;28;20472;-90
2023/04/20 07:56:37;;;;;;;15.53;5.27;;;;;;;16.86;100.00;100898.59;5061462;28;20493;-91
2023/04/20 07:59:14;;;;;;;29.23;4.93;;;;;;;16.95;100.00;100908.25;5041204;28;20517;-91
2023/04/20 08:01:45;;;;;;;21.20;4.70;;;;;;;17.00;100.00;100900.13;5059642;28;20524;-92
2023/04/20 08:04:13;;;;;;;22.73;4.70;;;;;;;16.98;100.00;100885.69;5044659;28;20437;-91
2023/04/20 08:06:54;;;;;;;18.20;4.47;;;;;;;17.13;100.00;100905.47;5044667;28;20433;-93
2023/04/20 08:09:47;;;;;;;12.87;4.37;;;;;;;17.19;100.00;100899.00;5064914;28;20912;-92
2023/04/20 08:12:16;;;;;;;24.00;4.60;;;;;;;17.29;100.00;100898.47;5039438;28;20524;-90
2023/04/20 08:15:13;;;;;;;18.47;4.50;;;;;;;17.40;100.00;100908.69;5055981;28;20469;-91
2023/04/20 08:17:42;;;;;;;21.63;4.43;;;;;;;17.39;100.00;100886.84;5045216;28;20417;-91
2023/04/20 08:20:13;;;;;;;15.70;4.80;;;;;;;17.59;100.00;100917.78;5045574;28;20444;-90
2023/04/20 08:22:42;;;;;;;21.80;5.33;;;;;;;17.67;100.00;100916.63;5056342;28;20469;-92
2023/04/20 08:25:31;;;;;;;13.33;4.30;;;;;;;17.66;100.00;100903.91;5034130;28;20450;-91
2023/04/20 08:27:59;;;;;;;17.03;3.87;;;;;;;17.73;100.00;100902.69;5037845;28;20438;-91
2023/04/20 08:30:29;;;;;;;23.17;5.20;;;;;;;17.85;100.00;100920.16;5024891;28;20469;-92
2023/04/20 08:33:10;;;;;;;20.13;4.57;;;;;;;18.00;100.00;100921.63;5039835;28;20430;-92
2023/04/20 08:35:51;;;;;;;14.43;4.43;;;;;;;18.06;99.91;100915.16;5041050;28;20433;-92
2023/04/20 08:38:20;;;;;;;11.90;4.30;;;;;;;18.08;99.39;100907.47;5023808;28;20477;-91
2023/04/20 08:41:00;;;;;;;21.40;5.30;;;;;;;18.17;98.92;100915.16;5025195;28;20438;-91
2023/04/20 08:43:37;;;;;;;17.70;4.67;;;;;;;18.27;98.62;100917.34;5022430;28;20446;-91
2023/04/20 08:46:08;;;;;;;17.73;4.07;;;;;;;18.37;97.99;100920.31;5041744;28;20804;-91
2023/04/20 08:48:38;;;;;;;16.63;4.87;;;;;;;18.38;97.16;100910.94;5019055;28;20473;-91
2023/04/20 08:51:08;;;;;;;23.20;4.73;;;;;;;18.52;96.99;100920.66;5039731;28;20472;-91
2023/04/20 08:53:40;;;;;;;15.33;4.60;;;;;;;18.58;96.00;100924.41;5024500;28;20464;-92
2023/04/20 08:56:16;;;;;;;14.10;4.13;;;;;;;18.62;95.80;100926.50;5051454;28;20457;-91
2023/04/20 08:58:48;;;;;;;25.80;4.70;;;;;;;18.66;95.35;100924.09;5037044;28;20426;-91
2023/04/20 09:01:17;;;;;;;20.43;4.00;;;;;;;18.63;95.14;100906.03;5027787;28;20447;-91
2023/04/20 09:07:52;;;;;;;20.13;4.87;;;;;;;18.81;94.12;100906.94;5074462;28;20505;-89
2023/04/20 09:10:25;;;;;;;13.80;4.73;;;;;;;18.93;93.88;100914.13;5023472;28;20556;-94
2023/04/20 09:16:21;;;;;;;15.63;4.13;;;;;;;19.15;92.68;100903.22;5070620;28;21014;-94
2023/04/20 09:19:01;;;;;;;12.77;3.57;;;;;;;19.28;92.27;100908.47;5044983;28;20449;-93
2023/04/20 09:25:18;;;;;;;13.80;3.67;;;;;;;19.54;90.92;100925.63;5065171;28;20444;-93
2023/04/20 09:28:08;;;;;;;29.23;5.20;;;;;;;19.61;89.71;100918.00;5041547;28;20440;-94
2023/04/20 09:34:26;;;;;;;17.50;3.80;;;;;;;19.72;88.71;100908.78;5057134;28;20496;-87
2023/04/20 09:36:56;;;;;;;13.40;4.47;;;;;;;19.86;88.26;100915.69;5072289;28;20868;-87
2023/04/20 09:39:25;;;;;;;15.80;4.53;;;;;;;19.87;88.30;100911.81;5054992;28;20961;-89
2023/04/20 09:41:53;;;;;;;17.60;3.77;;;;;;;19.94;87.67;100906.94;5037096;28;20519;-89
2023/04/20 09:44:21;;;;;;;16.90;4.00;;;;;;;20.13;87.24;100920.56;5053038;28;20434;-92
2023/04/20 09:46:50;;;;;;;14.80;4.03;;;;;;;20.23;86.60;100915.16;5051509;28;20520;-89
2023/04/20 09:49:20;;;;;;;13.23;3.70;;;;;;;20.33;86.26;100915.34;5038112;28;20973;-88
2023/04/20 09:51:47;;;;;;;16.00;4.47;;;;;;;20.43;85.60;100909.97;5055282;28;21018;-88
2023/04/20 09:54:16;;;;;;;10.73;3.17;;;;;;;20.59;84.89;100919.38;5039158;28;20517;-88
2023/04/20 09:56:44;;;;;;;13.27;3.23;;;;;;;20.71;84.43;100922.03;5037857;28;20434;-87
2023/04/20 09:59:12;;;;;;;12.00;3.63;;;;;;;20.79;84.04;100913.22;5055541;28;20452;-88
2023/04/20 10:01:43;;;;;;;13.63;3.30;;;;;;;20.92;83.36;100919.28;5037439;28;20854;-88
2023/04/20 10:04:15;;;;;;;15.20;3.70;;;;;;;21.05;82.43;100918.03;5038402;28;20471;-89
2023/04/20 10:07:02;;;;;;;17.00;3.97;;;;;;;21.23;82.14;100912.16;5055553;28;20969;-89
2023/04/20 10:09:31;;;;;;;12.73;2.70;;;;;;;21.29;80.59;100902.78;5055532;28;20429;-90
2023/04/20 10:12:08;;;;;;;25.27;3.90;;;;;;;21.51;80.15;100905.53;5049813;28;20576;-89
2023/04/20 10:14:36;;;;;;;11.47;3.83;;;;;;;21.61;79.12;100897.28;5038535;28;20532;-89
2023/04/20 10:17:08;;;;;;;17.87;3.30;;;;;;;21.78;78.82;100905.50;5022711;28;20856;-89
2023/04/20 10:19:44;;;;;;;19.97;3.30;;;;;;;21.94;77.96;100898.97;5037094;28;20448;-89
2023/04/20 10:22:13;;;;;;;11.63;3.57;;;;;;;22.04;77.11;100901.88;5039146;28;20445;-90
2023/04/20 10:24:40;;;;;;;14.00;3.60;;;;;;;22.12;76.70;100895.00;5024831;28;20469;-89
2023/04/20 10:27:18;;;;;;;15.77;3.43;;;;;;;22.27;76.25;100903.47;5052755;28;20835;-89
2023/04/20 10:29:46;;;;;;;19.30;3.93;;;;;;;22.35;76.16;100882.59;5029110;28;20437;-89
2023/04/20 10:32:22;;;;;;;14.83;3.20;;;;;;;22.62;75.80;100897.28;5057950;28;20535;-89
2023/04/20 10:35:05;;;;;;;13.03;3.87;;;;;;;22.81;75.24;100889.31;5033629;28;20442;-89
2023/04/20 10:37:36;;;;;;;10.60;3.67;;;;;;;22.88;73.77;100887.13;5015424;28;20461;-89
2023/04/20 10:40:06;;;;;;;13.03;3.23;;;;;;;23.02;73.47;100881.88;5038864;28;20435;-90
2023/04/20 10:43:03;;;;;;;15.77;3.53;;;;;;;23.14;72.95;100864.91;5036637;28;20493;-92
2023/04/20 10:45:35;;;;;;;14.30;3.63;;;;;;;23.35;72.72;100852.69;5037820;28;20802;-92
2023/04/20 10:48:29;;;;;;;10.93;2.90;;;;;;;23.64;71.48;100876.22;5042355;28;20449;-91
2023/04/20 10:51:11;;;;;;;14.40;3.70;;;;;;;23.83;70.44;100876.50;5059176;28;20536;-92
2023/04/20 10:54:06;;;;;;;9.20;3.50;;;;;;;24.09;70.54;100869.78;5026562;28;20473;-91
2023/04/20 10:57:02;;;;;;;15.17;4.40;;;;;;;24.36;70.77;100871.47;5058031;28;20536;-92
2023/04/20 10:59:37;;;;;;;25.13;3.90;;;;;;;24.54;71.02;100878.41;5067165;28;20550;-91
2023/04/20 11:02:13;;;;;;;17.13;4.03;;;;;;;24.63;71.09;100873.94;5027264;28;20430;-92
2023/04/20 11:04:41;;;;;;;15.33;2.67;;;;;;;24.76;70.26;100854.56;5042613;28;20425;-91
2023/04/20 11:07:12;;;;;;;55.87;6.07;;;;;;;24.94;69.39;100863.44;5025369;28;20449;-91
2023/04/20 11:10:09;;;;;;;25.47;4.07;;;;;;;25.13;68.33;100881.28;5042917;28;20889;-91
2023/04/20 11:12:39;;;;;;;22.27;4.03;;;;;;;25.17;67.93;100874.00;5039492;28;20543;-91
2023/04/20 11:15:08;;;;;;;18.23;3.90;;;;;;;25.23;67.79;100881.22;5025506;28;20446;-92
2023/04/20 11:17:58;;;;;;;19.37;5.27;;;;;;;25.25;67.52;100872.53;5023086;28;20477;-92
2023/04/20 11:20:58;;;;;;;16.63;4.37;;;;;;;25.39;67.17;100874.44;5051647;28;20453;-92
2023/04/20 11:23:42;;;;;;;10.03;2.90;;;;;;;25.36;66.75;100872.22;5062067;28;20466;-92
2023/04/20 11:26:14;;;;;;;15.63;4.10;;;;;;;25.41;66.05;100883.34;5052703;28;20500;-92
2023/04/20 11:28:58;;;;;;;14.33;3.70;;;;;;;25.39;65.85;100888.44;5056108;28;20936;-90
2023/04/20 11:31:41;;;;;;;16.17;3.70;;;;;;;25.39;66.29;100885.63;5058390;28;20484;-92
2023/04/20 11:34:21;;;;;;;15.93;3.20;;;;;;;25.47;65.86;100889.75;5071898;28;20437;-91
2023/04/20 11:36:53;;;;;;;15.43;3.40;;;;;;;25.51;65.79;100888.06;5044568;28;20448;-91
2023/04/20 11:39:28;;;;;;;13.77;3.90;;;;;;;25.59;65.60;100898.66;5043360;28;20448;-92
2023/04/20 11:42:01;;;;;;;18.97;4.40;;;;;;;25.64;64.94;100895.00;5041484;28;20448;-91
2023/04/20 11:44:30;;;;;;;20.20;3.93;;;;;;;25.69;64.33;100886.56;5049967;28;21006;-90